Time;durP1;ratioP1;P1;durP2;ratioP2;P2;SDS_P1;SDS_P2;PMS_P1;PMS_P2;Temp;Humidity;BMP_temperature;BMP_pressure;BME280_temperature;BME280_humidity;BME280_pressure;Samples;Min_cycle;Max_cycle;Signal;HPM_P1;HPM_P2
2023/03/08 10:11:36;;;;;;;25.77;23.38;;;7.50;99.90;;;;;;5066392;27;20393;-80
2023/03/08 10:14:12;;;;;;;25.90;22.40;;;9.00;99.90;;;;;;5067208;28;20213;-80
2023/03/08 10:16:45;;;;;;;21.50;19.70;;;9.60;99.90;;;;;;5067216;28;20460;-81
2023/03/08 10:19:17;;;;;;;20.70;18.90;;;9.50;99.90;;;;;;5067388;28;20440;-81
2023/03/08 10:21:44;;;;;;;20.50;18.50;;;9.40;99.90;;;;;;5067446;28;20871;-81
2023/03/08 10:24:15;;;;;;;20.30;18.33;;;9.40;99.90;;;;;;5067162;28;20865;-82
2023/03/08 10:26:44;;;;;;;23.67;21.30;;;9.40;99.90;;;;;;5067203;28;21012;-82
2023/03/08 10:29:12;;;;;;;22.63;19.93;;;9.40;99.90;;;;;;5067268;28;20490;-83
2023/03/08 10:31:39;;;;;;;19.97;18.33;;;9.30;99.90;;;;;;5067068;28;20520;-80
2023/03/08 10:34:12;;;;;;;20.20;18.37;;;9.40;99.90;;;;;;5067168;28;20830;-82
2023/03/08 10:36:49;;;;;;;18.83;17.30;;;9.50;99.90;;;;;;5067146;28;20501;-82
2023/03/08 10:39:16;;;;;;;20.53;18.50;;;9.50;99.90;;;;;;5067009;28;20528;-82
2023/03/08 10:41:47;;;;;;;20.27;18.47;;;9.40;99.90;;;;;;5066814;28;20537;-80
2023/03/08 10:44:27;;;;;;;16.60;15.37;;;9.40;99.90;;;;;;5066937;28;20447;-82
2023/03/08 10:46:53;;;;;;;17.23;15.73;;;9.60;99.90;;;;;;5066772;28;20490;-81
2023/03/08 10:49:24;;;;;;;16.03;14.77;;;9.90;99.90;;;;;;5066780;28;20823;-81
2023/03/08 10:51:56;;;;;;;13.37;11.90;;;10.10;99.90;;;;;;5066668;28;20474;-81
2023/03/08 10:54:23;;;;;;;13.73;12.93;;;10.40;99.90;;;;;;5066409;28;20448;-81
2023/03/08 10:56:57;;;;;;;16.20;15.10;;;11.00;99.90;;;;;;5066386;28;20581;-81
2023/03/08 10:59:31;;;;;;;13.63;12.60;;;11.90;99.90;;;;;;5066409;28;20450;-82
2023/03/08 11:02:00;;;;;;;13.50;12.63;;;12.30;99.90;;;;;;5066435;28;20501;-82
2023/03/08 11:04:30;;;;;;;15.40;14.30;;;12.60;99.90;;;;;;5066188;28;20451;-80
2023/03/08 11:06:57;;;;;;;11.80;11.20;;;12.90;99.90;;;;;;5061576;28;20985;-80
2023/03/08 11:09:26;;;;;;;11.57;10.87;;;13.40;99.90;;;;;;5055733;28;20494;-80
2023/03/08 11:11:55;;;;;;;12.70;11.87;;;14.00;99.90;;;;;;5055698;28;20521;-79
2023/03/08 11:14:22;;;;;;;11.50;10.90;;;14.20;99.50;;;;;;5052675;28;20565;-80
2023/03/08 11:16:55;;;;;;;11.70;11.10;;;14.30;99.30;;;;;;5052424;28;20578;-80
2023/03/08 11:19:35;;;;;;;10.53;10.10;;;14.50;99.60;;;;;;5052696;28;20525;-81
2023/03/08 11:22:10;;;;;;;10.60;10.10;;;14.80;98.70;;;;;;5050918;28;20497;-82
2023/03/08 11:24:51;;;;;;;10.40;10.00;;;14.50;99.20;;;;;;5052670;28;20939;-82
2023/03/08 11:27:31;;;;;;;10.23;9.77;;;14.70;99.20;;;;;;5052471;28;20456;-82
2023/03/08 11:30:09;;;;;;;10.40;10.00;;;14.50;99.40;;;;;;5052704;28;20483;-82
2023/03/08 11:33:05;;;;;;;10.17;9.77;;;14.70;99.40;;;;;;5052629;28;20448;-82
2023/03/08 11:35:37;;;;;;;10.20;9.70;;;14.80;98.90;;;;;;5052486;28;20456;-82
2023/03/08 11:38:14;;;;;;;10.57;10.00;;;14.60;99.60;;;;;;5052482;28;20448;-82
2023/03/08 11:40:51;;;;;;;9.53;9.20;;;14.40;99.90;;;;;;5052429;28;20448;-82
2023/03/08 11:43:34;;;;;;;9.90;9.50;;;14.50;99.90;;;;;;5052396;28;20501;-80
2023/03/08 11:46:06;;;;;;;10.20;9.80;;;14.60;99.90;;;;;;5052415;28;20843;-82
2023/03/08 11:48:54;;;;;;;10.50;10.00;;;14.60;99.80;;;;;;5052308;28;20499;-81
2023/03/08 11:51:28;;;;;;;9.70;9.40;;;14.40;99.90;;;;;;5052071;28;20488;-82
2023/03/08 11:54:07;;;;;;;9.20;8.90;;;14.50;99.90;;;;;;5052229;28;20456;-82
2023/03/08 11:56:45;;;;;;;9.80;9.33;;;14.70;99.90;;;;;;5052082;28;20448;-82
2023/03/08 11:59:24;;;;;;;9.60;9.20;;;14.50;99.90;;;;;;5052396;28;20505;-82
2023/03/08 12:01:57;;;;;;;10.03;9.63;;;14.20;99.90;;;;;;5052050;28;20535;-81
2023/03/08 12:04:31;;;;;;;9.50;9.20;;;14.10;99.90;;;;;;5052032;28;20440;-82
2023/03/08 12:07:02;;;;;;;9.77;9.47;;;14.20;99.90;;;;;;5052051;28;20618;-81
2023/03/08 12:09:34;;;;;;;9.90;9.50;;;13.90;99.90;;;;;;5051827;28;20483;-81
2023/03/08 12:12:06;;;;;;;9.20;8.90;;;13.80;99.90;;;;;;5052368;28;20462;-81
2023/03/08 12:14:42;;;;;;;9.50;9.17;;;13.80;99.90;;;;;;5051888;28;20478;-81
2023/03/08 12:17:17;;;;;;;9.27;8.90;;;13.70;99.90;;;;;;5052026;28;20452;-81
2023/03/08 12:19:46;;;;;;;8.90;8.63;;;13.80;99.90;;;;;;5052186;28;20534;-82
2023/03/08 12:22:25;;;;;;;9.83;9.43;;;13.90;99.90;;;;;;5051702;28;20911;-82
2023/03/08 12:24:59;;;;;;;9.10;8.80;;;14.10;99.90;;;;;;5052826;28;20994;-81
2023/03/08 12:27:29;;;;;;;9.50;9.10;;;14.10;99.90;;;;;;5053247;28;20881;-81
2023/03/08 12:30:02;;;;;;;9.60;9.30;;;14.20;99.90;;;;;;5053249;28;20491;-81
2023/03/08 12:32:30;;;;;;;9.50;9.20;;;14.40;99.90;;;;;;5053710;28;20455;-81
2023/03/08 12:35:04;;;;;;;9.00;8.60;;;14.30;99.90;;;;;;5054307;28;20448;-79
2023/03/08 12:37:31;;;;;;;8.80;8.50;;;14.30;99.90;;;;;;5053097;28;20494;-81
2023/03/08 12:40:01;;;;;;;9.37;8.87;;;14.40;99.90;;;;;;5053977;28;20448;-81
2023/03/08 12:42:36;;;;;;;9.50;9.17;;;14.60;99.90;;;;;;5055019;28;20452;-79
2023/03/08 12:45:29;;;;;;;7.73;7.43;;;14.40;99.90;;;;;;5054266;28;20459;-80
2023/03/08 12:48:00;;;;;;;9.47;8.97;;;14.20;99.90;;;;;;5055189;28;20459;-80
2023/03/08 12:50:28;;;;;;;9.70;9.30;;;14.20;99.90;;;;;;5058247;28;20484;-80
2023/03/08 12:52:55;;;;;;;9.40;9.10;;;14.40;99.90;;;;;;5056425;28;20444;-81
2023/03/08 12:55:30;;;;;;;9.80;9.20;;;14.60;99.90;;;;;;5051422;28;20444;-81
2023/03/08 12:57:57;;;;;;;8.97;8.60;;;14.90;99.90;;;;;;5051067;28;20542;-80
2023/03/08 13:00:29;;;;;;;8.97;8.67;;;14.90;99.90;;;;;;5050869;28;20513;-80
2023/03/08 13:03:04;;;;;;;8.90;8.60;;;14.80;99.90;;;;;;5050810;28;20479;-80
2023/03/08 13:05:35;;;;;;;9.20;8.90;;;15.10;99.90;;;;;;5050907;28;20459;-80
2023/03/08 13:08:07;;;;;;;9.20;8.90;;;15.40;99.90;;;;;;5050886;28;20578;-81
2023/03/08 13:10:37;;;;;;;9.50;9.00;;;15.20;99.90;;;;;;5051231;28;20843;-82
2023/03/08 13:13:21;;;;;;;9.57;9.03;;;15.20;99.90;;;;;;5050856;28;20935;-82
2023/03/08 13:15:49;;;;;;;8.83;8.53;;;15.30;99.90;;;;;;5050692;28;21001;-81
2023/03/08 13:18:19;;;;;;;8.70;8.43;;;15.10;99.90;;;;;;5050650;28;20447;-82
2023/03/08 13:21:08;;;;;;;10.03;9.40;;;14.80;99.90;;;;;;5051044;28;20478;-81
2023/03/08 13:23:40;;;;;;;9.97;9.47;;;14.90;99.90;;;;;;5050595;28;20456;-83
2023/03/08 13:26:21;;;;;;;9.10;8.80;;;15.10;99.90;;;;;;5051013;28;20444;-82
2023/03/08 13:28:48;;;;;;;9.40;9.10;;;15.10;99.90;;;;;;5050865;28;20495;-80
2023/03/08 13:31:19;;;;;;;9.40;9.10;;;15.00;99.90;;;;;;5050839;28;20499;-81
2023/03/08 13:33:47;;;;;;;9.63;9.23;;;15.10;99.90;;;;;;5050410;28;21080;-81
2023/03/08 13:36:18;;;;;;;9.17;8.87;;;15.30;99.90;;;;;;5050839;28;20457;-81
2023/03/08 13:38:54;;;;;;;9.30;9.00;;;15.70;99.90;;;;;;5051239;28;20501;-80
2023/03/08 13:41:31;;;;;;;9.50;9.20;;;15.60;99.90;;;;;;5051283;28;20443;-80
2023/03/08 13:44:01;;;;;;;9.60;9.20;;;15.70;99.90;;;;;;5051821;28;20451;-81
2023/03/08 13:46:29;;;;;;;9.57;9.27;;;15.70;99.90;;;;;;5053193;28;20542;-81
2023/03/08 13:48:56;;;;;;;9.77;9.47;;;16.10;99.90;;;;;;5059085;28;20502;-83
2023/03/08 13:51:26;;;;;;;9.80;9.50;;;16.20;99.40;;;;;;5054946;28;20479;-81
2023/03/08 13:53:53;;;;;;;9.63;9.33;;;15.90;99.90;;;;;;5070752;28;20463;-81
2023/03/08 13:56:23;;;;;;;10.00;9.70;;;15.80;99.90;;;;;;5072773;28;20428;-82
2023/03/08 13:58:53;;;;;;;10.17;9.77;;;15.90;99.90;;;;;;5055154;28;20482;-80
2023/03/08 14:01:22;;;;;;;9.37;9.00;;;15.80;99.90;;;;;;5051400;28;20502;-82
2023/03/08 14:03:51;;;;;;;8.90;8.60;;;15.40;99.90;;;;;;5050513;28;20499;-80
2023/03/08 14:06:21;;;;;;;9.40;8.80;;;15.40;99.90;;;;;;5050121;28;20535;-81
2023/03/08 14:08:48;;;;;;;8.77;8.47;;;15.60;99.90;;;;;;5049876;28;20468;-80
2023/03/08 14:11:18;;;;;;;9.00;8.50;;;15.80;99.90;;;;;;5049923;28;20494;-81
2023/03/08 14:13:46;;;;;;;8.27;7.97;;;16.10;99.90;;;;;;5050154;28;20455;-81
2023/03/08 14:16:25;;;;;;;8.60;8.40;;;16.40;99.40;;;;;;5050299;28;20456;-80
2023/03/08 14:18:53;;;;;;;9.20;8.90;;;16.40;99.30;;;;;;5049883;28;20452;-81
2023/03/08 14:21:22;;;;;;;9.27;8.87;;;16.30;99.30;;;;;;5049625;28;20819;-81
2023/03/08 14:23:51;;;;;;;7.90;7.70;;;16.20;99.50;;;;;;5049661;28;20452;-81
2023/03/08 14:26:27;;;;;;;9.40;9.10;;;16.20;99.50;;;;;;5049862;28;20854;-81
2023/03/08 14:29:11;;;;;;;8.90;8.60;;;16.00;99.80;;;;;;5049946;28;20451;-82
2023/03/08 14:31:38;;;;;;;8.90;8.60;;;15.40;99.90;;;;;;5049757;28;20514;-82
2023/03/08 14:34:18;;;;;;;8.70;8.40;;;15.20;99.90;;;;;;5049744;28;20530;-82
2023/03/08 14:36:52;;;;;;;8.60;8.40;;;15.10;99.90;;;;;;5050074;28;20509;-82
2023/03/08 14:39:19;;;;;;;8.97;8.47;;;15.20;99.90;;;;;;5049554;28;20605;-79
2023/03/08 14:41:46;;;;;;;9.33;8.93;;;15.40;99.90;;;;;;5050030;28;20444;-81
2023/03/08 14:44:19;;;;;;;8.97;8.77;;;15.50;99.90;;;;;;5050111;28;20540;-80
2023/03/08 14:46:45;;;;;;;8.57;8.10;;;15.70;99.90;;;;;;5052325;28;20525;-81
2023/03/08 14:49:22;;;;;;;8.90;8.60;;;15.60;99.90;;;;;;5053669;28;20451;-81
2023/03/08 14:51:49;;;;;;;8.87;8.60;;;15.50;99.90;;;;;;5053538;28;20479;-81
2023/03/08 14:54:30;;;;;;;8.80;8.50;;;15.40;99.90;;;;;;5053628;28;20447;-80
2023/03/08 14:56:57;;;;;;;8.63;8.43;;;15.20;99.90;;;;;;5054100;28;20499;-81
2023/03/08 14:59:24;;;;;;;8.37;8.17;;;15.20;99.90;;;;;;5053791;28;20789;-81
2023/03/08 15:01:51;;;;;;;8.50;8.20;;;15.30;99.90;;;;;;5057343;28;20459;-82
2023/03/08 15:04:22;;;;;;;8.67;8.37;;;15.20;99.90;;;;;;5061528;28;20448;-81
2023/03/08 15:06:50;;;;;;;8.87;8.57;;;15.10;99.90;;;;;;5053441;28;20462;-81
2023/03/08 15:09:19;;;;;;;9.13;8.80;;;14.90;99.90;;;;;;5053087;28;20526;-80
2023/03/08 15:11:48;;;;;;;9.30;8.60;;;15.00;99.90;;;;;;5053358;28;20495;-80
2023/03/08 15:14:15;;;;;;;8.67;8.43;;;15.10;99.90;;;;;;5053317;28;20940;-80
2023/03/08 15:16:41;;;;;;;8.93;8.53;;;15.30;99.90;;;;;;5053234;28;20955;-79
2023/03/08 15:19:09;;;;;;;9.10;8.70;;;15.50;99.90;;;;;;5053387;28;20452;-81
2023/03/08 15:21:37;;;;;;;8.20;8.00;;;15.70;99.90;;;;;;5053036;28;20440;-81
2023/03/08 15:24:06;;;;;;;8.43;8.23;;;15.90;99.90;;;;;;5052844;28;20494;-80
2023/03/08 15:26:33;;;;;;;9.30;8.80;;;16.00;99.90;;;;;;5053042;28;20540;-80
2023/03/08 15:29:02;;;;;;;8.83;8.43;;;15.80;99.90;;;;;;5053131;28;20444;-80
2023/03/08 15:31:29;;;;;;;8.60;8.30;;;15.70;99.90;;;;;;5052933;28;21069;-79
2023/03/08 15:33:56;;;;;;;8.60;8.30;;;15.40;99.90;;;;;;5052988;28;20534;-79
2023/03/08 15:36:23;;;;;;;8.50;8.30;;;15.40;99.90;;;;;;5052624;28;20451;-79
2023/03/08 15:38:51;;;;;;;9.37;8.90;;;15.30;99.90;;;;;;5052267;28;20478;-78
2023/03/08 15:41:17;;;;;;;8.90;8.30;;;15.10;99.90;;;;;;5052651;28;20470;-80
2023/03/08 15:43:44;;;;;;;8.47;8.17;;;15.00;99.90;;;;;;5053281;28;20934;-78
2023/03/08 15:46:12;;;;;;;8.77;8.47;;;14.90;99.90;;;;;;5052533;28;20455;-79
2023/03/08 15:48:39;;;;;;;8.90;8.60;;;14.80;99.90;;;;;;5052429;28;20939;-79
2023/03/08 15:51:06;;;;;;;8.80;8.50;;;14.60;99.90;;;;;;5052154;28;20760;-79
2023/03/08 15:53:32;;;;;;;8.90;8.40;;;14.70;99.90;;;;;;5052427;28;20459;-79
2023/03/08 15:56:00;;;;;;;8.80;8.50;;;14.70;99.90;;;;;;5052375;28;20455;-79
2023/03/08 15:58:27;;;;;;;9.07;8.77;;;14.60;99.90;;;;;;5052367;28;20841;-79
2023/03/08 16:00:54;;;;;;;8.53;8.23;;;14.70;99.90;;;;;;5052524;28;20842;-79
2023/03/08 16:03:24;;;;;;;8.57;8.27;;;14.70;99.90;;;;;;5052511;28;20923;-80
2023/03/08 16:05:51;;;;;;;8.60;8.30;;;14.60;99.90;;;;;;5052679;28;20499;-79
2023/03/08 16:08:18;;;;;;;8.40;8.10;;;14.60;99.90;;;;;;5051893;28;20476;-79
2023/03/08 16:10:46;;;;;;;9.13;8.63;;;14.50;99.90;;;;;;5051858;28;20506;-79
2023/03/08 16:13:16;;;;;;;8.33;7.93;;;14.50;99.90;;;;;;5052136;28;20452;-79
2023/03/08 16:15:43;;;;;;;8.20;8.00;;;14.60;99.90;;;;;;5052231;28;20800;-79
2023/03/08 16:18:09;;;;;;;8.00;7.80;;;14.50;99.90;;;;;;5051884;28;20939;-79
2023/03/08 16:20:39;;;;;;;7.50;7.30;;;14.50;99.90;;;;;;5051878;28;20456;-80
2023/03/08 16:23:06;;;;;;;7.60;7.40;;;14.50;99.90;;;;;;5051592;28;20448;-80
2023/03/08 16:25:33;;;;;;;8.20;7.90;;;14.50;99.90;;;;;;5051544;28;20518;-80
2023/03/08 16:28:00;;;;;;;10.37;9.97;;;14.50;99.90;;;;;;5051407;28;20448;-77
2023/03/08 16:30:28;;;;;;;12.43;11.90;;;14.30;99.90;;;;;;5051370;28;20506;-77
2023/03/08 16:32:55;;;;;;;11.37;10.97;;;14.10;99.90;;;;;;5050851;28;20498;-77
2023/03/08 16:35:22;;;;;;;10.23;9.73;;;13.70;99.90;;;;;;5051165;28;20708;-77
2023/03/08 16:37:48;;;;;;;9.60;9.20;;;13.60;99.90;;;;;;5050795;28;20452;-77
2023/03/08 16:40:15;;;;;;;9.20;8.90;;;13.60;99.90;;;;;;5051233;28;20474;-77
2023/03/08 16:42:42;;;;;;;8.83;8.63;;;13.70;99.90;;;;;;5051278;28;20517;-77
2023/03/08 16:45:09;;;;;;;9.73;9.23;;;13.80;99.90;;;;;;5051005;28;20470;-78
2023/03/08 16:47:37;;;;;;;9.37;9.07;;;13.90;99.90;;;;;;5051084;28;20474;-77
2023/03/08 16:50:05;;;;;;;12.17;11.80;;;13.90;99.90;;;;;;5050708;28;20484;-76
2023/03/08 16:52:31;;;;;;;16.00;15.50;;;13.70;99.90;;;;;;5051233;28;20506;-74
2023/03/08 16:54:58;;;;;;;16.57;15.97;;;13.50;99.90;;;;;;5055708;28;20436;-74
2023/03/08 16:57:25;;;;;;;15.40;14.87;;;13.30;99.90;;;;;;5052502;28;20459;-75
2023/03/08 16:59:52;;;;;;;15.50;15.00;;;13.00;99.90;;;;;;5052621;28;20807;-77
2023/03/08 17:02:20;;;;;;;15.20;14.70;;;12.80;99.90;;;;;;5060384;28;20939;-77
2023/03/08 17:04:49;;;;;;;14.67;14.17;;;12.70;99.90;;;;;;5051880;28;20453;-77
2023/03/08 17:07:17;;;;;;;15.53;14.93;;;12.60;99.90;;;;;;5051826;28;20533;-79
2023/03/08 17:09:45;;;;;;;13.67;13.27;;;12.50;99.90;;;;;;5051486;28;20484;-79
2023/03/08 17:12:11;;;;;;;12.90;12.50;;;12.40;99.90;;;;;;5051206;28;20484;-80
2023/03/08 17:14:38;;;;;;;11.90;11.40;;;12.40;99.90;;;;;;5050903;28;20452;-78
2023/03/08 17:17:05;;;;;;;11.50;11.20;;;12.40;99.90;;;;;;5050820;28;20474;-78
2023/03/08 17:19:32;;;;;;;10.63;10.33;;;12.40;99.90;;;;;;5050829;28;20549;-80
2023/03/08 17:22:00;;;;;;;9.97;9.67;;;12.40;99.90;;;;;;5051303;28;20793;-79
2023/03/08 17:24:29;;;;;;;10.10;9.80;;;12.50;99.90;;;;;;5050564;28;20502;-79
2023/03/08 17:26:56;;;;;;;10.00;9.70;;;12.70;99.90;;;;;;5051038;28;20476;-80
2023/03/08 17:29:22;;;;;;;9.33;9.03;;;12.70;99.90;;;;;;5050610;28;20521;-79
2023/03/08 17:31:49;;;;;;;10.60;10.20;;;12.80;99.90;;;;;;5050440;28;20484;-79
2023/03/08 17:34:19;;;;;;;9.63;9.33;;;12.80;99.90;;;;;;5050721;28;20957;-78
2023/03/08 17:36:46;;;;;;;10.40;10.03;;;12.80;99.90;;;;;;5050400;28;20448;-79
2023/03/08 17:39:14;;;;;;;10.30;9.90;;;12.70;99.90;;;;;;5050632;28;20872;-78
2023/03/08 17:41:41;;;;;;;10.10;9.70;;;12.70;99.90;;;;;;5050515;28;20665;-77
2023/03/08 17:44:08;;;;;;;10.60;10.30;;;12.70;99.90;;;;;;5050168;28;20460;-78
2023/03/08 17:46:35;;;;;;;10.00;9.53;;;12.80;99.90;;;;;;5050041;28;20452;-78
2023/03/08 17:49:02;;;;;;;10.20;9.50;;;12.80;99.90;;;;;;5050306;28;20460;-79
2023/03/08 17:51:31;;;;;;;11.40;11.00;;;12.80;99.90;;;;;;5050816;28;20483;-79
2023/03/08 17:53:59;;;;;;;12.97;12.47;;;12.80;99.90;;;;;;5050100;28;20459;-78
2023/03/08 17:56:29;;;;;;;13.60;13.10;;;12.70;99.90;;;;;;5050005;28;20467;-78
